Time;durP1;ratioP1;P1;durP2;ratioP2;P2;SDS_P1;SDS_P2;PMS_P1;PMS_P2;Temp;Humidity;BMP_temperature;BMP_pressure;BME280_temperature;BME280_humidity;BME280_pressure;Samples;Min_cycle;Max_cycle;Signal;HPM_P1;HPM_P2
2022/04/11 00:01:03;;;;;;;23.08;12.82;;;23.20;35.60;;;;;;6133291;28;83529;-65
2022/04/11 00:04:03;;;;;;;24.67;12.57;;;23.20;35.60;;;;;;6124230;28;83331;-65
2022/04/11 00:07:04;;;;;;;23.80;13.07;;;23.20;35.60;;;;;;6131149;28;84009;-64
2022/04/11 00:10:04;;;;;;;24.38;12.77;;;23.20;35.60;;;;;;6126822;28;83301;-66
2022/04/11 00:13:05;;;;;;;23.98;12.77;;;23.20;35.60;;;;;;6132611;28;83575;-65
2022/04/11 00:16:07;;;;;;;23.98;12.93;;;23.20;35.60;;;;;;6122066;28;83201;-65
2022/04/11 00:19:10;;;;;;;23.58;13.02;;;23.20;35.60;;;;;;6124950;28;84090;-65
2022/04/11 00:22:11;;;;;;;23.45;12.82;;;23.20;35.60;;;;;;6108671;28;84035;-65
2022/04/11 00:25:11;;;;;;;22.75;12.50;;;23.20;35.50;;;;;;6112879;28;83583;-66
2022/04/11 00:28:12;;;;;;;22.60;12.55;;;23.20;35.70;;;;;;6132762;28;83090;-65
2022/04/11 00:31:13;;;;;;;22.48;11.88;;;23.20;35.60;;;;;;6108734;28;83283;-65
2022/04/11 00:34:14;;;;;;;22.60;12.30;;;23.20;35.50;;;;;;6116636;28;83500;-65
2022/04/11 00:37:14;;;;;;;24.83;12.00;;;23.20;35.50;;;;;;6131364;28;83062;-65
2022/04/11 00:40:15;;;;;;;25.20;12.63;;;23.20;35.50;;;;;;6130760;28;83122;-65
2022/04/11 00:43:16;;;;;;;22.92;11.63;;;23.20;35.60;;;;;;6108696;28;82863;-66
2022/04/11 00:46:16;;;;;;;22.05;11.70;;;23.20;35.40;;;;;;6118102;28;82873;-66
2022/04/11 00:49:17;;;;;;;22.52;12.38;;;23.20;35.50;;;;;;6132976;28;82931;-66
2022/04/11 00:52:18;;;;;;;23.58;12.20;;;23.20;35.50;;;;;;6114415;28;83041;-66
2022/04/11 00:55:18;;;;;;;20.65;11.23;;;23.20;35.40;;;;;;6121050;28;83964;-67
2022/04/11 00:58:19;;;;;;;20.95;11.60;;;23.10;35.40;;;;;;6132632;28;84404;-66
2022/04/11 01:01:19;;;;;;;23.13;12.07;;;23.20;35.50;;;;;;6123597;28;86198;-65
2022/04/11 01:04:27;;;;;;;20.17;11.10;;;23.10;35.50;;;;;;6131856;28;83107;-66
2022/04/11 01:07:27;;;;;;;21.25;10.68;;;23.10;35.50;;;;;;6130363;28;83192;-66
2022/04/11 01:10:28;;;;;;;22.08;11.35;;;23.20;36.00;;;;;;6113281;28;84626;-64
2022/04/11 01:13:29;;;;;;;20.17;10.45;;;23.20;36.00;;;;;;6108551;28;83227;-64
2022/04/11 01:16:29;;;;;;;25.38;11.93;;;23.20;35.90;;;;;;6106690;28;85693;-64
2022/04/11 01:19:30;;;;;;;22.00;10.35;;;23.10;35.90;;;;;;6110037;28;84018;-64
2022/04/11 01:22:30;;;;;;;19.85;11.32;;;23.10;35.80;;;;;;6115420;28;86282;-65
2022/04/11 01:25:31;;;;;;;22.33;12.02;;;23.10;35.70;;;;;;6107751;28;84187;-65
2022/04/11 01:28:31;;;;;;;20.33;10.95;;;23.10;35.70;;;;;;6105970;28;83844;-65
2022/04/11 01:31:32;;;;;;;22.23;11.18;;;23.10;35.70;;;;;;6112353;28;83059;-66
2022/04/11 01:34:33;;;;;;;23.02;11.27;;;23.10;35.70;;;;;;6130390;28;85555;-65
2022/04/11 01:37:33;;;;;;;20.45;10.75;;;23.10;35.90;;;;;;6118590;28;86079;-66
2022/04/11 01:40:34;;;;;;;18.58;10.07;;;23.10;35.80;;;;;;6105806;28;85721;-65
2022/04/11 01:43:35;;;;;;;17.70;9.55;;;23.10;35.70;;;;;;6117090;28;82794;-65
2022/04/11 01:46:35;;;;;;;23.33;10.60;;;23.10;35.70;;;;;;6132019;28;83958;-66
2022/04/11 01:49:49;;;;;;;19.33;10.45;;;23.10;35.60;;;;;;6105915;28;82748;-65
2022/04/11 01:52:50;;;;;;;20.55;10.32;;;23.10;35.60;;;;;;6118396;28;84293;-65
2022/04/11 01:55:50;;;;;;;20.48;10.18;;;23.10;35.60;;;;;;6131238;28;82715;-66
2022/04/11 01:58:51;;;;;;;20.38;10.15;;;23.10;35.50;;;;;;6128915;28;85967;-65
2022/04/11 02:01:52;;;;;;;18.20;9.70;;;23.10;35.50;;;;;;6129367;28;84033;-66
2022/04/11 02:04:52;;;;;;;16.05;8.57;;;23.10;35.50;;;;;;6133627;28;83140;-65
2022/04/11 02:07:53;;;;;;;18.02;9.88;;;23.10;35.40;;;;;;6132956;28;82728;-65
2022/04/11 02:10:54;;;;;;;16.83;9.60;;;23.10;35.50;;;;;;6116208;28;80646;-65
2022/04/11 02:13:55;;;;;;;17.58;9.30;;;23.10;35.50;;;;;;6108987;28;81706;-66
2022/04/11 02:16:55;;;;;;;15.27;8.40;;;23.10;35.40;;;;;;6116528;28;80633;-65
2022/04/11 02:19:56;;;;;;;17.83;9.07;;;23.10;35.50;;;;;;6110083;28;80950;-65
2022/04/11 02:22:56;;;;;;;20.30;10.00;;;23.10;35.50;;;;;;6109985;28;80915;-65
2022/04/11 02:26:00;;;;;;;21.13;10.30;;;23.10;35.50;;;;;;6107093;28;82887;-65
2022/04/11 02:29:01;;;;;;;23.25;9.15;;;23.10;35.50;;;;;;6104927;28;85885;-65
2022/04/11 02:32:02;;;;;;;18.25;10.02;;;23.10;35.60;;;;;;6110369;28;84416;-66
2022/04/11 02:35:02;;;;;;;16.38;9.13;;;23.10;35.60;;;;;;6112699;28;82966;-65
2022/04/11 02:38:03;;;;;;;15.30;8.73;;;23.10;35.60;;;;;;6119911;28;83501;-66
2022/04/11 02:41:05;;;;;;;17.70;9.25;;;23.10;35.50;;;;;;6136506;28;81847;-65
2022/04/11 02:44:15;;;;;;;17.13;8.63;;;23.10;35.40;;;;;;6136429;28;83554;-65
2022/04/11 02:47:16;;;;;;;15.20;8.70;;;23.10;35.60;;;;;;6119552;28;83042;-66
2022/04/11 02:50:16;;;;;;;13.32;8.10;;;23.00;35.50;;;;;;6137724;28;81619;-66
2022/04/11 02:53:40;;;;;;;16.98;8.65;;;23.00;35.40;;;;;;6128524;28;81646;-66
2022/04/11 02:56:40;;;;;;;13.77;7.60;;;23.00;35.50;;;;;;6112204;28;83342;-66
2022/04/11 02:59:42;;;;;;;14.52;7.40;;;23.00;35.50;;;;;;6115869;28;83495;-65
2022/04/11 03:02:43;;;;;;;14.38;7.60;;;23.00;35.60;;;;;;6124881;28;82723;-65
2022/04/11 03:05:43;;;;;;;17.60;8.55;;;23.00;35.40;;;;;;6120269;28;82650;-68
2022/04/11 03:08:44;;;;;;;13.07;7.40;;;23.00;35.40;;;;;;6135712;28;83398;-68
2022/04/11 03:11:49;;;;;;;15.23;7.85;;;23.00;35.60;;;;;;6136116;28;82073;-68
2022/04/11 03:14:50;;;;;;;14.38;7.70;;;23.00;35.50;;;;;;6121651;28;81476;-68
2022/04/11 03:17:52;;;;;;;16.02;7.90;;;23.00;35.60;;;;;;6111759;28;83504;-67
2022/04/11 03:20:54;;;;;;;16.92;8.25;;;23.00;35.70;;;;;;6133831;28;82847;-66
2022/04/11 03:23:55;;;;;;;12.85;7.07;;;23.00;35.80;;;;;;6135913;28;83303;-66
2022/04/11 03:26:56;;;;;;;14.10;7.22;;;23.00;35.90;;;;;;6137223;28;80497;-66
2022/04/11 03:30:01;;;;;;;13.73;7.55;;;23.00;36.30;;;;;;6135667;28;81862;-67
2022/04/11 03:33:04;;;;;;;12.43;7.25;;;23.00;35.80;;;;;;6128844;28;83309;-67
2022/04/11 03:36:08;;;;;;;13.25;6.97;;;23.00;35.90;;;;;;6118677;28;81878;-66
2022/04/11 03:39:08;;;;;;;12.55;6.68;;;23.00;35.90;;;;;;6095760;28;82044;-69
2022/04/11 03:42:13;;;;;;;14.43;7.35;;;23.00;35.80;;;;;;6111090;28;83397;-67
2022/04/11 03:45:13;;;;;;;9.38;5.72;;;23.00;36.20;;;;;;6113244;28;80879;-68
2022/04/11 03:48:16;;;;;;;12.68;6.78;;;23.00;36.60;;;;;;6118479;28;82674;-68
2022/04/11 03:51:17;;;;;;;11.45;6.32;;;23.00;37.00;;;;;;6115125;28;83596;-67
2022/04/11 03:54:17;;;;;;;12.27;6.47;;;23.00;36.80;;;;;;6111522;28;82752;-66
2022/04/11 03:57:18;;;;;;;9.95;5.63;;;23.00;36.60;;;;;;6112611;28;80485;-67
2022/04/11 04:00:23;;;;;;;11.20;5.70;;;23.00;37.10;;;;;;6127231;28;82422;-66
2022/04/11 04:03:44;;;;;;;12.70;6.53;;;23.00;37.00;;;;;;6134922;28;86589;-67
2022/04/11 04:06:46;;;;;;;11.60;5.93;;;23.00;36.70;;;;;;6114924;28;82169;-67
2022/04/11 04:09:49;;;;;;;11.48;6.28;;;23.00;36.30;;;;;;6112359;28;82429;-65
2022/04/11 04:12:50;;;;;;;10.82;6.03;;;23.00;36.50;;;;;;6113104;28;82169;-66
2022/04/11 04:15:54;;;;;;;11.82;6.30;;;23.00;36.20;;;;;;6125651;28;82872;-67
2022/04/11 04:18:56;;;;;;;14.10;6.32;;;23.00;36.50;;;;;;6119255;28;80475;-70
2022/04/11 04:21:57;;;;;;;12.07;6.07;;;23.10;36.80;;;;;;6131804;28;83474;-71
2022/04/11 04:24:58;;;;;;;12.10;6.10;;;23.10;36.60;;;;;;6117447;28;83108;-72
2022/04/11 04:28:00;;;;;;;12.75;6.43;;;23.10;36.70;;;;;;6131538;28;83269;-69
2022/04/11 04:31:01;;;;;;;14.40;5.57;;;23.10;37.80;;;;;;6125400;28;81878;-71
2022/04/11 04:34:03;;;;;;;13.30;6.47;;;23.20;38.40;;;;;;6133689;28;82661;-68
2022/04/11 04:37:05;;;;;;;9.50;5.93;;;23.20;37.50;;;;;;6134082;28;83499;-66
2022/04/11 04:40:05;;;;;;;9.88;5.95;;;23.20;37.40;;;;;;6133724;28;82858;-67
2022/04/11 04:43:08;;;;;;;13.93;5.85;;;23.10;37.30;;;;;;6134299;28;83370;-68
2022/04/11 04:46:09;;;;;;;11.20;6.00;;;23.10;37.40;;;;;;6133289;28;82256;-69
2022/04/11 04:49:18;;;;;;;10.93;5.70;;;23.10;37.60;;;;;;6134504;28;80752;-69
2022/04/11 04:52:19;;;;;;;10.45;5.78;;;23.10;37.70;;;;;;6134282;28;83396;-68
2022/04/11 04:55:32;;;;;;;10.60;5.72;;;23.10;38.30;;;;;;6134183;28;83509;-68
2022/04/11 04:58:33;;;;;;;10.30;6.38;;;23.10;38.30;;;;;;6134231;28;83166;-67
2022/04/11 05:01:34;;;;;;;13.35;6.22;;;23.10;38.60;;;;;;6133413;28;82226;-66
2022/04/11 05:04:35;;;;;;;9.63;6.05;;;23.20;38.30;;;;;;6134080;28;82772;-66
2022/04/11 05:07:38;;;;;;;10.32;5.85;;;23.20;39.20;;;;;;6135587;28;81231;-67
2022/04/11 05:10:38;;;;;;;11.10;5.72;;;23.20;38.60;;;;;;6133325;28;82933;-76
2022/04/11 05:13:40;;;;;;;9.90;5.60;;;23.20;38.70;;;;;;6120737;28;83306;-77
2022/04/11 05:16:41;;;;;;;10.27;5.80;;;23.20;38.40;;;;;;6119252;28;83419;-69
2022/04/11 05:19:46;;;;;;;13.15;6.00;;;23.20;38.60;;;;;;6133799;28;83302;-68
2022/04/11 05:22:47;;;;;;;11.55;5.38;;;23.30;38.70;;;;;;6127293;28;82953;-70
2022/04/11 05:25:49;;;;;;;12.73;5.97;;;23.30;38.70;;;;;;6110797;28;83193;-69
2022/04/11 05:28:51;;;;;;;10.25;5.90;;;23.30;38.40;;;;;;6133297;28;81858;-68
2022/04/11 05:31:54;;;;;;;9.00;5.35;;;23.30;38.60;;;;;;6133618;28;83905;-75
2022/04/11 05:34:55;;;;;;;11.05;5.88;;;23.30;38.50;;;;;;6135534;28;80476;-73
2022/04/11 05:37:55;;;;;;;11.15;5.70;;;23.30;38.30;;;;;;6117008;28;82916;-68
2022/04/11 05:40:56;;;;;;;11.07;5.13;;;23.30;38.30;;;;;;6116523;28;82966;-68
2022/04/11 05:44:16;;;;;;;9.35;4.32;;;23.30;38.10;;;;;;6108875;28;82223;-65
2022/04/11 05:47:19;;;;;;;10.18;5.45;;;23.40;38.40;;;;;;6108294;28;82710;-69
2022/04/11 05:50:25;;;;;;;9.82;5.60;;;23.40;38.10;;;;;;6112957;28;83288;-67
2022/04/11 05:53:26;;;;;;;11.48;4.93;;;23.30;38.10;;;;;;6132622;28;83482;-71
2022/04/11 05:56:27;;;;;;;12.98;5.10;;;23.30;38.40;;;;;;6129001;28;83218;-71
2022/04/11 05:59:28;;;;;;;7.88;4.40;;;23.30;38.10;;;;;;6131115;28;81319;-69
2022/04/11 06:02:28;;;;;;;10.23;5.07;;;23.30;38.00;;;;;;6132583;28;81560;-69
2022/04/11 06:05:29;;;;;;;9.27;5.00;;;23.30;37.80;;;;;;6132702;28;82729;-69
2022/04/11 06:08:30;;;;;;;7.38;4.22;;;23.30;37.60;;;;;;6132978;28;82245;-74
2022/04/11 06:11:30;;;;;;;9.55;5.22;;;23.20;37.60;;;;;;6126705;28;81379;-70
2022/04/11 06:14:32;;;;;;;8.70;4.53;;;23.20;37.60;;;;;;6132563;28;83052;-73
2022/04/11 06:17:34;;;;;;;8.25;4.60;;;23.20;37.70;;;;;;6128641;28;83397;-71
2022/04/11 06:20:35;;;;;;;10.23;5.30;;;23.20;38.00;;;;;;6125792;28;81611;-74
2022/04/11 06:23:38;;;;;;;10.95;5.32;;;23.20;37.80;;;;;;6133098;28;83547;-73
2022/04/11 06:26:39;;;;;;;9.82;4.10;;;23.20;37.80;;;;;;6134208;28;80732;-72
2022/04/11 06:29:40;;;;;;;10.82;4.97;;;23.20;37.70;;;;;;6110948;28;83377;-71
2022/04/11 06:32:40;;;;;;;10.40;5.90;;;23.20;37.20;;;;;;6132114;28;83035;-71
2022/04/11 06:35:41;;;;;;;11.93;4.93;;;23.10;36.80;;;;;;6131589;28;83602;-73
2022/04/11 06:38:43;;;;;;;9.18;5.07;;;23.10;36.60;;;;;;6115078;28;82074;-73
2022/04/11 06:41:43;;;;;;;9.95;5.20;;;23.10;36.30;;;;;;6127800;28;80834;-74
2022/04/11 06:44:44;;;;;;;9.57;5.13;;;23.10;36.40;;;;;;6120436;28;83508;-74
2022/04/11 06:47:48;;;;;;;10.55;5.07;;;23.10;36.30;;;;;;6120213;28;83510;-74
2022/04/11 06:50:50;;;;;;;10.45;4.78;;;23.10;36.10;;;;;;6108622;28;82804;-72
2022/04/11 06:53:51;;;;;;;10.30;4.82;;;23.10;36.00;;;;;;6127995;28;83110;-73
2022/04/11 06:56:51;;;;;;;7.00;4.07;;;23.10;35.90;;;;;;6131340;28;81429;-72
2022/04/11 06:59:52;;;;;;;8.88;4.90;;;23.10;35.80;;;;;;6132576;28;81628;-73
2022/04/11 07:02:53;;;;;;;8.77;3.80;;;23.10;35.50;;;;;;6134100;28;80688;-77
2022/04/11 07:05:53;;;;;;;8.15;4.00;;;23.10;35.60;;;;;;6131627;28;80797;-76
2022/04/11 07:08:54;;;;;;;10.43;4.10;;;23.20;35.70;;;;;;6124585;28;81463;-74
2022/04/11 07:11:54;;;;;;;6.95;4.00;;;23.20;35.60;;;;;;6114955;28;80484;-69
2022/04/11 07:14:56;;;;;;;9.10;4.28;;;23.20;35.40;;;;;;6121863;28;81797;-67
2022/04/11 07:17:57;;;;;;;7.53;3.97;;;23.20;35.20;;;;;;6135284;28;80855;-70
2022/04/11 07:20:57;;;;;;;7.00;3.70;;;23.30;35.20;;;;;;6136039;28;80574;-70
2022/04/11 07:23:58;;;;;;;9.10;3.80;;;23.30;35.00;;;;;;6137789;28;80323;-68
2022/04/11 07:26:58;;;;;;;8.05;3.67;;;23.40;35.00;;;;;;6140271;28;81006;-67
2022/04/11 07:29:59;;;;;;;9.60;3.63;;;23.40;34.50;;;;;;6137379;28;80719;-67
2022/04/11 07:32:59;;;;;;;7.70;3.35;;;23.40;34.40;;;;;;6135840;28;82537;-72
2022/04/11 07:36:00;;;;;;;9.77;3.40;;;23.50;34.20;;;;;;6135794;28;81300;-75
2022/04/11 07:39:00;;;;;;;10.50;3.50;;;23.50;34.00;;;;;;6146346;28;80852;-71
2022/04/11 07:42:01;;;;;;;6.40;3.22;;;23.50;34.00;;;;;;6136257;28;80695;-71
2022/04/11 07:45:02;;;;;;;8.57;3.42;;;23.60;34.00;;;;;;6136732;28;80739;-72
2022/04/11 07:48:02;;;;;;;6.55;3.40;;;23.70;33.70;;;;;;6136429;28;80319;-70
2022/04/11 07:51:03;;;;;;;7.88;3.53;;;23.80;33.30;;;;;;6120764;28;81462;-71
2022/04/11 07:54:03;;;;;;;12.80;4.28;;;23.80;32.90;;;;;;6134486;28;81211;-71
2022/04/11 07:57:04;;;;;;;9.82;4.25;;;23.90;32.80;;;;;;6119933;28;81633;-72
2022/04/11 08:00:06;;;;;;;9.60;3.95;;;23.90;32.50;;;;;;6125897;28;81504;-71
2022/04/11 08:03:13;;;;;;;9.88;3.75;;;24.00;32.30;;;;;;6122859;28;81186;-70
2022/04/11 08:06:13;;;;;;;6.85;3.60;;;24.10;32.20;;;;;;6136421;28;81076;-71
2022/04/11 08:09:14;;;;;;;11.77;4.25;;;24.20;32.10;;;;;;6131588;28;81945;-71
2022/04/11 08:12:14;;;;;;;11.75;3.78;;;24.20;31.80;;;;;;6136822;28;80951;-69
2022/04/11 08:15:15;;;;;;;7.65;3.80;;;24.20;31.90;;;;;;6129827;28;81344;-69
2022/04/11 08:18:15;;;;;;;6.00;3.35;;;24.10;31.90;;;;;;6131261;28;80314;-69
2022/04/11 08:21:16;;;;;;;69.63;23.15;;;24.00;31.90;;;;;;6123028;28;80381;-70
2022/04/11 08:24:17;;;;;;;189.30;75.25;;;24.00;31.90;;;;;;6133626;28;82990;-70
2022/04/11 08:27:17;;;;;;;190.75;73.85;;;24.00;31.80;;;;;;6107642;28;86039;-69
2022/04/11 08:30:18;;;;;;;133.23;54.58;;;24.00;31.60;;;;;;6109148;28;83818;-69
2022/04/11 08:33:18;;;;;;;172.98;70.38;;;24.00;31.50;;;;;;6120364;28;83442;-70
2022/04/11 08:36:19;;;;;;;125.72;54.53;;;24.00;31.50;;;;;;6118478;28;82916;-70
2022/04/11 08:39:19;;;;;;;78.40;29.95;;;24.00;31.40;;;;;;6109395;28;82987;-70
2022/04/11 08:42:22;;;;;;;43.72;17.30;;;24.00;31.10;;;;;;6109049;28;83472;-72
2022/04/11 08:45:23;;;;;;;31.67;12.13;;;24.00;30.90;;;;;;6114921;28;83338;-70
2022/04/11 08:48:23;;;;;;;18.35;7.53;;;24.00;31.00;;;;;;6130782;28;84289;-69
2022/04/11 08:51:24;;;;;;;21.00;6.25;;;23.90;30.90;;;;;;6136123;28;83967;-71
2022/04/11 08:54:24;;;;;;;16.08;5.03;;;23.90;31.00;;;;;;6135626;28;80453;-72
2022/04/11 08:57:25;;;;;;;12.50;4.93;;;23.90;31.30;;;;;;6115848;28;80664;-70
2022/04/11 09:00:25;;;;;;;11.57;4.47;;;23.80;31.40;;;;;;6131715;28;80638;-70
2022/04/11 09:03:27;;;;;;;6.68;3.58;;;23.80;31.70;;;;;;6123335;28;80513;-71
2022/04/11 09:06:27;;;;;;;13.43;3.72;;;23.80;31.90;;;;;;6122776;28;85114;-71
2022/04/11 09:09:28;;;;;;;13.13;3.92;;;23.90;32.20;;;;;;6136035;28;80573;-73
2022/04/11 09:12:28;;;;;;;9.80;3.55;;;23.90;32.20;;;;;;6125321;28;80791;-71
2022/04/11 09:15:29;;;;;;;7.95;3.00;;;23.90;32.30;;;;;;6130410;28;80397;-72
2022/04/11 09:18:29;;;;;;;6.50;3.00;;;24.00;32.40;;;;;;6135713;28;80151;-73
2022/04/11 09:21:30;;;;;;;4.70;2.75;;;24.00;32.50;;;;;;6134220;28;81245;-70
2022/04/11 09:24:31;;;;;;;5.15;2.30;;;24.00;32.60;;;;;;6135765;28;81392;-71
2022/04/11 09:27:32;;;;;;;4.70;2.70;;;24.00;32.70;;;;;;6134308;28;81118;-72
2022/04/11 09:30:33;;;;;;;7.32;3.15;;;24.10;32.80;;;;;;6132032;28;80390;-69
2022/04/11 09:33:34;;;;;;;7.75;2.92;;;24.00;32.90;;;;;;6132307;28;80271;-70
2022/04/11 09:36:34;;;;;;;7.88;2.55;;;24.10;33.10;;;;;;6135230;28;80741;-70
2022/04/11 09:39:37;;;;;;;4.45;2.15;;;24.10;33.10;;;;;;6134595;28;80851;-70
2022/04/11 09:42:38;;;;;;;4.55;2.60;;;24.10;33.20;;;;;;6125667;28;80429;-71
2022/04/11 09:45:39;;;;;;;4.90;2.47;;;24.10;33.30;;;;;;6116756;28;80487;-71
2022/04/11 09:48:39;;;;;;;7.22;2.35;;;24.10;33.40;;;;;;6130069;28;80562;-68
2022/04/11 09:51:40;;;;;;;5.28;2.67;;;24.10;33.50;;;;;;6118125;28;80131;-67
2022/04/11 09:54:44;;;;;;;4.22;2.45;;;24.10;33.60;;;;;;6130986;28;80646;-70
2022/04/11 09:57:45;;;;;;;4.07;2.15;;;24.10;33.60;;;;;;6132617;28;81940;-69
2022/04/11 10:00:46;;;;;;;6.13;2.28;;;24.10;33.60;;;;;;6134665;28;80178;-68
2022/04/11 10:03:47;;;;;;;3.58;2.33;;;24.10;33.60;;;;;;6127647;28;81768;-68
2022/04/11 10:06:47;;;;;;;4.80;2.97;;;24.10;33.70;;;;;;6134712;28;80223;-71
2022/04/11 10:09:49;;;;;;;6.15;2.13;;;24.10;33.80;;;;;;6124064;28;80581;-71
2022/04/11 10:12:52;;;;;;;6.43;2.35;;;24.10;33.80;;;;;;6132685;28;81210;-70
2022/04/11 10:15:52;;;;;;;2.67;1.77;;;24.10;33.80;;;;;;6135289;28;80622;-70
2022/04/11 10:18:53;;;;;;;6.70;2.60;;;24.10;34.00;;;;;;6122234;28;80962;-71
2022/04/11 10:21:53;;;;;;;5.45;2.40;;;24.10;34.00;;;;;;6134296;28;80390;-71
2022/04/11 10:24:54;;;;;;;3.25;1.90;;;24.10;34.10;;;;;;6141330;28;79925;-70
2022/04/11 10:27:54;;;;;;;3.28;2.25;;;24.00;34.10;;;;;;6139090;28;81885;-70
2022/04/11 10:30:55;;;;;;;2.30;1.60;;;24.00;34.30;;;;;;6132664;28;80280;-68
2022/04/11 10:33:56;;;;;;;5.55;2.22;;;24.00;34.40;;;;;;6137287;28;81568;-70
2022/04/11 10:36:56;;;;;;;2.55;1.95;;;24.00;34.40;;;;;;6141603;28;81505;-70
2022/04/11 10:39:57;;;;;;;6.32;2.40;;;24.00;34.40;;;;;;6148587;28;82072;-72
2022/04/11 10:42:57;;;;;;;3.63;2.20;;;24.00;34.40;;;;;;6144224;28;80433;-71
2022/04/11 10:45:58;;;;;;;2.88;2.10;;;24.00;34.30;;;;;;6140066;28;80239;-69
2022/04/11 10:48:59;;;;;;;4.25;2.60;;;24.00;34.40;;;;;;6138856;28;80439;-70
2022/04/11 10:51:59;;;;;;;5.10;2.67;;;24.00;34.50;;;;;;6143462;28;80395;-70
2022/04/11 10:55:00;;;;;;;5.88;2.30;;;24.00;35.20;;;;;;6116107;28;80497;-68
2022/04/11 10:58:00;;;;;;;3.13;1.90;;;24.00;35.10;;;;;;6117814;28;80768;-69
2022/04/11 11:01:01;;;;;;;2.45;1.95;;;24.10;35.10;;;;;;6132994;28;82264;-69
2022/04/11 11:04:01;;;;;;;4.20;2.42;;;24.00;35.20;;;;;;6136786;28;80243;-70
2022/04/11 11:07:02;;;;;;;5.82;2.72;;;24.00;35.20;;;;;;6134407;28;80397;-69
2022/04/11 11:10:03;;;;;;;6.60;2.40;;;24.00;35.30;;;;;;6134265;28;80347;-72
2022/04/11 11:13:03;;;;;;;5.22;2.38;;;24.00;35.30;;;;;;6132937;28;80478;-72
2022/04/11 11:16:04;;;;;;;3.85;2.05;;;24.00;35.20;;;;;;6119447;28;82267;-72
2022/04/11 11:19:04;;;;;;;2.15;1.90;;;24.00;35.20;;;;;;6128205;28;82406;-68
2022/04/11 11:22:05;;;;;;;3.72;2.00;;;24.00;35.20;;;;;;6128328;28;81669;-71
2022/04/11 11:25:06;;;;;;;3.75;2.30;;;24.00;35.30;;;;;;6134871;28;81618;-70
2022/04/11 11:28:06;;;;;;;1.90;1.60;;;24.00;35.40;;;;;;6137939;28;80729;-71
2022/04/11 11:31:07;;;;;;;2.45;1.80;;;23.90;35.40;;;;;;6116460;28;82230;-71
2022/04/11 11:34:07;;;;;;;3.30;1.90;;;23.90;35.50;;;;;;6134465;28;80031;-70
2022/04/11 11:37:09;;;;;;;2.80;2.10;;;23.90;35.40;;;;;;6131633;28;81992;-71
2022/04/11 11:40:10;;;;;;;4.38;2.35;;;23.90;35.40;;;;;;6133523;28;80934;-70
2022/04/11 11:43:10;;;;;;;3.20;2.17;;;24.00;35.40;;;;;;6137583;28;80530;-68
2022/04/11 11:46:11;;;;;;;2.58;1.85;;;24.00;35.40;;;;;;6137819;28;80781;-68
2022/04/11 11:49:12;;;;;;;4.90;2.20;;;24.00;35.40;;;;;;6130720;28;80594;-69
2022/04/11 11:52:12;;;;;;;3.05;2.35;;;24.00;35.50;;;;;;6136009;28;80856;-68
2022/04/11 11:55:13;;;;;;;6.47;3.38;;;24.10;35.50;;;;;;6138862;28;80335;-67
2022/04/11 11:58:14;;;;;;;8.27;4.40;;;24.10;35.50;;;;;;6137938;28;80412;-68
2022/04/11 12:01:15;;;;;;;8.48;4.70;;;24.20;35.70;;;;;;6136935;28;80855;-67
2022/04/11 12:04:18;;;;;;;10.98;5.00;;;24.20;35.80;;;;;;6135975;28;81864;-68
2022/04/11 12:07:19;;;;;;;10.38;5.20;;;24.20;35.80;;;;;;6136311;28;80547;-70
2022/04/11 12:10:19;;;;;;;11.55;5.75;;;24.20;36.00;;;;;;6137226;28;81381;-73
2022/04/11 12:13:20;;;;;;;9.48;4.75;;;24.20;35.90;;;;;;6137626;28;80227;-72
2022/04/11 12:16:21;;;;;;;8.23;4.53;;;24.10;36.00;;;;;;6123815;28;81521;-71
2022/04/11 12:19:22;;;;;;;8.20;4.20;;;24.10;36.10;;;;;;6134620;28;80371;-71
2022/04/11 12:22:22;;;;;;;8.70;4.78;;;24.20;36.10;;;;;;6137207;28;80858;-71
2022/04/11 12:25:23;;;;;;;10.35;4.57;;;24.10;36.00;;;;;;6130474;28;81637;-70
2022/04/11 12:28:23;;;;;;;7.97;3.75;;;24.10;36.00;;;;;;6134944;28;82221;-69
2022/04/11 12:31:24;;;;;;;9.60;4.65;;;24.10;36.00;;;;;;6133404;28;81876;-70
2022/04/11 12:34:24;;;;;;;7.88;3.90;;;24.10;36.00;;;;;;6135752;28;80640;-69
2022/04/11 12:37:25;;;;;;;7.88;4.15;;;24.10;36.00;;;;;;6134875;28;80451;-69
2022/04/11 12:40:26;;;;;;;6.05;3.95;;;24.00;36.00;;;;;;6135990;28;81287;-70
2022/04/11 12:43:26;;;;;;;7.13;3.58;;;24.00;36.10;;;;;;6136439;28;80233;-68
2022/04/11 12:46:27;;;;;;;6.20;3.60;;;24.00;36.10;;;;;;6136078;28;80887;-68
2022/04/11 12:49:27;;;;;;;6.07;3.47;;;24.00;36.10;;;;;;6144614;28;80687;-67
2022/04/11 12:52:28;;;;;;;6.75;3.53;;;24.00;36.00;;;;;;6137158;28;80564;-68
2022/04/11 12:55:28;;;;;;;7.25;3.00;;;24.00;36.10;;;;;;6135772;28;80518;-67
2022/04/11 12:58:29;;;;;;;5.72;3.20;;;24.00;36.20;;;;;;6126006;28;81806;-68
2022/04/11 13:01:29;;;;;;;6.82;3.10;;;24.00;36.20;;;;;;6111487;28;80302;-68
2022/04/11 13:04:30;;;;;;;7.25;3.45;;;24.00;36.30;;;;;;6120590;28;80299;-68
2022/04/11 13:07:31;;;;;;;6.45;3.15;;;24.00;36.20;;;;;;6135935;28;80229;-67
2022/04/11 13:10:31;;;;;;;5.80;3.03;;;24.00;36.20;;;;;;6135462;28;81002;-68
2022/04/11 13:13:32;;;;;;;5.57;2.95;;;24.00;36.10;;;;;;6135967;28;81479;-66
2022/04/11 13:19:51;;;;;;;6.90;3.30;;;24.00;36.10;;;;;;6125887;28;81323;-70
2022/04/11 13:22:52;;;;;;;5.70;3.00;;;24.00;36.30;;;;;;6135355;28;80408;-68
2022/04/11 13:25:53;;;;;;;6.35;3.17;;;24.00;36.30;;;;;;6132184;28;81826;-68
2022/04/11 13:28:55;;;;;;;6.38;3.10;;;23.90;36.10;;;;;;6135324;28;80358;-68
2022/04/11 13:31:56;;;;;;;5.28;3.13;;;24.00;36.00;;;;;;6126895;28;81421;-66
2022/04/11 13:34:56;;;;;;;19.10;3.72;;;23.90;35.80;;;;;;6130417;28;80570;-67
2022/04/11 13:37:57;;;;;;;6.68;3.25;;;23.90;35.80;;;;;;6135004;28;80707;-68
2022/04/11 13:40:57;;;;;;;5.93;2.90;;;23.90;35.70;;;;;;6142846;28;83230;-68
2022/04/11 13:43:58;;;;;;;4.53;2.47;;;23.90;35.70;;;;;;6134010;28;81032;-68
2022/04/11 13:46:58;;;;;;;4.10;2.83;;;24.00;35.70;;;;;;6135179;28;80591;-68
2022/04/11 13:49:59;;;;;;;7.32;3.20;;;24.00;35.50;;;;;;6135482;28;80817;-67
2022/04/11 13:52:59;;;;;;;6.28;3.05;;;24.00;35.50;;;;;;6118246;28;81524;-64
2022/04/11 13:56:00;;;;;;;5.82;3.13;;;24.00;35.40;;;;;;6134786;28;80509;-74
2022/04/11 13:59:01;;;;;;;3.45;2.55;;;24.00;35.70;;;;;;6127421;28;80245;-67
2022/04/11 14:02:01;;;;;;;5.03;2.50;;;24.00;35.60;;;;;;6128665;28;80937;-67
2022/04/11 14:05:02;;;;;;;5.70;2.90;;;24.00;35.80;;;;;;6144049;28;80430;-65
2022/04/11 14:08:02;;;;;;;5.72;3.30;;;24.00;36.00;;;;;;6131519;28;80210;-67
2022/04/11 14:11:03;;;;;;;175.38;78.93;;;24.00;36.10;;;;;;6132537;28;80749;-67
2022/04/11 14:14:03;;;;;;;316.20;135.57;;;24.00;36.00;;;;;;6129977;28;84626;-68
2022/04/11 14:17:04;;;;;;;260.63;113.30;;;24.00;36.30;;;;;;6120943;28;85441;-65
2022/04/11 14:20:04;;;;;;;206.32;87.65;;;24.00;36.20;;;;;;6109170;28;85717;-65
2022/04/11 14:23:05;;;;;;;187.32;83.43;;;24.00;36.40;;;;;;6117236;28;86484;-66
2022/04/11 14:26:06;;;;;;;183.38;77.07;;;24.00;36.50;;;;;;6113068;28;83080;-64
2022/04/11 14:29:06;;;;;;;160.13;70.90;;;24.00;36.70;;;;;;6114801;28;85603;-66
2022/04/11 14:32:07;;;;;;;137.23;60.47;;;24.00;36.60;;;;;;6134652;28;83417;-65
2022/04/11 14:35:07;;;;;;;135.20;55.58;;;24.10;36.60;;;;;;6135351;28;84072;-65
2022/04/11 14:38:08;;;;;;;127.60;58.40;;;24.10;36.50;;;;;;6135353;28;83455;-65
2022/04/11 14:41:09;;;;;;;119.60;50.85;;;24.00;36.50;;;;;;6133671;28;83335;-65
2022/04/11 14:44:10;;;;;;;112.72;47.28;;;24.00;36.70;;;;;;6116187;28;83037;-66
2022/04/11 14:47:12;;;;;;;105.15;45.72;;;24.10;36.70;;;;;;6112549;28;83224;-65
2022/04/11 14:50:13;;;;;;;110.40;45.25;;;24.10;36.50;;;;;;6135003;28;83379;-65
2022/04/11 14:53:13;;;;;;;88.28;39.50;;;24.10;36.50;;;;;;6126150;28;83445;-66
2022/04/11 14:56:14;;;;;;;89.20;37.65;;;24.10;36.60;;;;;;6109607;28;86520;-66
2022/04/11 14:59:15;;;;;;;80.88;35.85;;;24.10;36.60;;;;;;6124004;28;83542;-67
2022/04/11 15:02:15;;;;;;;76.15;35.25;;;24.10;36.80;;;;;;6134784;28;83060;-67
2022/04/11 15:05:16;;;;;;;81.25;31.95;;;24.10;36.90;;;;;;6119037;28;84411;-67
2022/04/11 15:08:16;;;;;;;64.57;27.38;;;24.10;36.90;;;;;;6129900;28;83270;-66
2022/04/11 15:11:18;;;;;;;57.95;26.05;;;24.10;37.00;;;;;;6142554;28;83157;-66
2022/04/11 15:14:19;;;;;;;49.35;23.98;;;24.10;36.60;;;;;;6126639;28;83164;-67
2022/04/11 15:17:19;;;;;;;51.08;20.73;;;24.10;36.60;;;;;;6128280;28;83882;-67
2022/04/11 15:20:20;;;;;;;36.95;18.05;;;24.10;36.50;;;;;;6125804;28;83813;-68
2022/04/11 15:23:20;;;;;;;39.13;17.92;;;24.10;36.60;;;;;;6130803;28;84170;-67
2022/04/11 15:26:23;;;;;;;34.92;16.50;;;24.10;36.40;;;;;;6133354;28;83054;-69
2022/04/11 15:29:23;;;;;;;35.80;15.18;;;24.10;36.20;;;;;;6133702;28;82962;-71
2022/04/11 15:32:24;;;;;;;36.17;15.45;;;24.10;36.20;;;;;;6125758;28;82849;-70
2022/04/11 15:35:24;;;;;;;32.67;14.48;;;24.10;36.30;;;;;;6123286;28;83661;-68